Time;durP1;ratioP1;P1;durP2;ratioP2;P2;SDS_P1;SDS_P2;PMS_P1;PMS_P2;Temp;Humidity;BMP_temperature;BMP_pressure;BME280_temperature;BME280_humidity;BME280_pressure;Samples;Min_cycle;Max_cycle;Signal;HPM_P1;HPM_P2
2022/03/26 00:00:43;;;;;;;0.52;0.52;;;8.20;47.60;;;7.34;33.98;95980.31;5014659;28;20193;-85
2022/03/26 00:03:15;;;;;;;0.50;0.50;;;8.20;47.70;;;7.34;34.17;95979.50;5013221;28;20279;-85
2022/03/26 00:05:46;;;;;;;0.60;0.60;;;8.20;49.20;;;7.32;34.39;95981.44;5004844;28;20201;-86
2022/03/26 00:08:13;;;;;;;0.60;0.60;;;8.20;48.00;;;7.21;34.34;95964.19;5033009;28;20227;-85
2022/03/26 00:10:42;;;;;;;0.80;0.80;;;8.20;48.00;;;7.28;34.16;95983.50;5012952;28;20231;-85
2022/03/26 00:13:09;;;;;;;0.70;0.70;;;8.20;47.90;;;7.24;34.13;95984.78;5032673;28;20582;-85
2022/03/26 00:15:36;;;;;;;0.52;0.52;;;8.10;47.80;;;7.18;34.17;95975.72;4996667;28;20554;-85
2022/03/26 00:18:04;;;;;;;0.50;0.50;;;8.20;48.60;;;7.10;34.07;95972.19;5013563;28;20201;-85
2022/03/26 00:20:31;;;;;;;0.60;0.60;;;8.10;47.80;;;7.00;33.81;95980.88;5008853;28;20415;-85
2022/03/26 00:22:58;;;;;;;0.55;0.55;;;8.10;47.70;;;6.93;33.91;95976.38;5004180;28;20319;-85
2022/03/26 00:25:25;;;;;;;0.60;0.60;;;8.00;47.70;;;6.74;34.26;95962.44;5010031;28;20272;-85
2022/03/26 00:27:52;;;;;;;0.60;0.60;;;7.90;47.60;;;6.68;33.89;95973.44;5013660;28;20205;-85
2022/03/26 00:30:20;;;;;;;0.70;0.70;;;7.80;47.50;;;6.61;33.79;95978.38;5001305;28;20205;-85
2022/03/26 00:32:47;;;;;;;0.70;0.70;;;7.80;48.90;;;6.48;34.21;95981.31;4980496;28;20209;-86
2022/03/26 00:35:14;;;;;;;0.70;0.70;;;7.70;47.60;;;6.37;34.47;95969.25;5014355;28;20252;-85
2022/03/26 00:37:41;;;;;;;0.50;0.50;;;7.60;47.70;;;6.21;34.65;95954.19;4995944;28;20210;-85
2022/03/26 00:40:09;;;;;;;0.50;0.50;;;7.60;48.00;;;6.32;34.81;95975.81;5020415;28;20220;-85
2022/03/26 00:42:37;;;;;;;0.70;0.70;;;7.50;48.20;;;6.25;34.69;95965.16;5011864;28;20634;-85
2022/03/26 00:45:05;;;;;;;0.50;0.50;;;7.40;48.30;;;6.25;34.78;95957.34;5000990;28;20216;-85
2022/03/26 00:47:33;;;;;;;0.70;0.70;;;7.40;48.50;;;6.23;35.11;95962.66;5000896;28;20224;-85
2022/03/26 00:50:00;;;;;;;0.50;0.50;;;7.30;48.40;;;6.22;34.92;95961.00;5015723;28;20228;-86
2022/03/26 00:52:27;;;;;;;0.55;0.55;;;7.30;48.60;;;6.24;34.94;95974.72;5031320;28;20262;-85
2022/03/26 00:54:54;;;;;;;0.68;0.68;;;7.30;48.70;;;6.24;34.99;95977.34;5017802;28;20243;-85
2022/03/26 00:57:21;;;;;;;0.70;0.70;;;7.30;48.80;;;6.17;34.67;95959.81;5006020;28;20216;-85
2022/03/26 00:59:49;;;;;;;0.70;0.70;;;7.20;48.70;;;6.17;34.76;95965.00;5008356;28;20235;-86
2022/03/26 01:02:17;;;;;;;0.70;0.70;;;7.20;48.70;;;6.11;34.52;95970.78;5014867;28;20217;-86
2022/03/26 01:04:44;;;;;;;0.60;0.60;;;7.20;48.50;;;6.01;34.66;95968.19;5012142;28;20228;-85
2022/03/26 01:07:11;;;;;;;0.70;0.70;;;7.10;48.30;;;5.93;34.47;95977.47;5013141;28;20205;-86
2022/03/26 01:09:38;;;;;;;0.80;0.80;;;7.10;48.30;;;5.84;34.72;95977.47;5011894;28;20299;-85
2022/03/26 01:12:06;;;;;;;0.70;0.70;;;7.00;48.20;;;5.75;34.67;95966.09;4996964;28;20233;-85
2022/03/26 01:14:33;;;;;;;0.60;0.60;;;7.00;48.50;;;5.70;34.83;95965.63;5015036;28;20288;-85
2022/03/26 01:17:00;;;;;;;0.60;0.60;;;6.90;48.50;;;5.64;34.91;95974.84;5031927;28;20197;-85
2022/03/26 01:19:28;;;;;;;0.60;0.60;;;6.80;48.60;;;5.59;34.76;95967.41;5012014;28;20242;-86
2022/03/26 01:21:55;;;;;;;0.60;0.60;;;6.80;48.70;;;5.52;34.68;95965.50;5003469;28;20189;-85
2022/03/26 01:24:22;;;;;;;0.70;0.70;;;6.70;48.60;;;5.38;34.70;95954.50;5000744;28;20695;-85
2022/03/26 01:26:50;;;;;;;0.70;0.70;;;6.70;48.70;;;5.32;35.06;95968.03;5022492;28;20204;-85
2022/03/26 01:29:17;;;;;;;0.75;0.75;;;6.70;48.80;;;5.26;35.17;95968.56;5013705;28;20316;-85
2022/03/26 01:31:44;;;;;;;0.50;0.50;;;6.50;48.70;;;5.10;35.59;95958.66;4999271;28;20628;-85
2022/03/26 01:34:11;;;;;;;0.60;0.60;;;6.50;49.00;;;5.09;35.46;95960.44;5031873;28;20255;-85
2022/03/26 01:36:39;;;;;;;0.70;0.70;;;6.40;49.20;;;4.95;35.71;95940.00;5015350;28;20197;-85
2022/03/26 01:39:06;;;;;;;0.77;0.77;;;6.30;49.50;;;5.04;36.08;95946.19;5031229;28;20307;-86
2022/03/26 01:41:33;;;;;;;0.60;0.60;;;6.30;50.00;;;5.22;36.40;95964.59;5015296;28;20201;-85
2022/03/26 01:44:01;;;;;;;0.70;0.70;;;6.30;50.20;;;5.26;36.39;95963.34;5031637;28;20232;-85
2022/03/26 01:46:54;;;;;;;0.70;0.70;;;6.20;50.30;;;5.31;36.62;95963.81;4997960;28;20201;-86
2022/03/26 01:49:23;;;;;;;0.70;0.70;;;6.30;50.90;;;5.33;36.22;95958.47;5011210;28;20259;-85
2022/03/26 01:51:50;;;;;;;0.70;0.70;;;6.30;50.30;;;5.38;36.22;95961.47;5015250;28;20671;-84
2022/03/26 01:54:19;;;;;;;0.80;0.80;;;6.30;50.40;;;5.44;35.94;95963.53;5021449;28;20304;-85
2022/03/26 01:56:46;;;;;;;0.70;0.70;;;6.30;50.40;;;5.34;36.01;95947.09;4995620;28;20208;-85
2022/03/26 01:59:13;;;;;;;0.70;0.70;;;6.30;50.30;;;5.35;36.13;95962.56;5011833;28;20256;-85
2022/03/26 02:01:42;;;;;;;0.80;0.80;;;6.30;50.20;;;5.31;37.35;95956.00;5007161;28;20259;-85
2022/03/26 02:04:10;;;;;;;0.70;0.70;;;6.30;51.30;;;5.33;37.93;95964.47;4997925;28;20859;-85
2022/03/26 02:06:39;;;;;;;0.70;0.70;;;6.30;52.00;;;5.40;38.97;95954.38;5019993;28;20197;-84
2022/03/26 02:09:10;;;;;;;0.70;0.70;;;6.30;52.40;;;5.39;39.57;95940.53;5018730;28;20216;-84
2022/03/26 02:11:41;;;;;;;0.75;0.75;;;6.40;53.50;;;5.55;40.43;95947.81;5018822;28;20259;-84
2022/03/26 02:14:10;;;;;;;0.60;0.60;;;6.40;54.00;;;5.64;40.66;95961.81;5017827;28;20753;-84
2022/03/26 02:16:40;;;;;;;0.70;0.70;;;6.40;53.90;;;5.69;41.64;95959.63;5017377;28;20193;-84
2022/03/26 02:19:09;;;;;;;0.80;0.80;;;6.50;54.90;;;5.78;41.11;95957.97;4999048;28;20687;-84
2022/03/26 02:21:37;;;;;;;0.70;0.70;;;6.50;54.60;;;5.79;40.92;95941.41;5015698;28;20193;-85
2022/03/26 02:24:06;;;;;;;0.70;0.70;;;6.60;54.30;;;5.85;40.34;95948.66;5033372;28;20235;-84
2022/03/26 02:26:33;;;;;;;0.60;0.60;;;6.60;54.20;;;5.87;40.05;95945.94;5018468;28;20635;-85
2022/03/26 02:29:19;;;;;;;0.70;0.70;;;6.70;53.90;;;5.91;39.80;95949.91;5049173;28;20291;-85
2022/03/26 02:31:46;;;;;;;0.60;0.60;;;6.70;54.10;;;5.92;40.49;95944.56;5014737;28;20690;-85
2022/03/26 02:34:13;;;;;;;0.60;0.60;;;6.70;54.40;;;5.91;40.64;95937.72;4998482;28;20567;-85
2022/03/26 02:36:40;;;;;;;0.60;0.60;;;6.80;54.50;;;5.98;40.55;95937.16;4998605;28;20248;-85
2022/03/26 02:39:07;;;;;;;0.70;0.70;;;6.80;54.30;;;6.00;40.58;95940.50;5014664;28;20228;-85
2022/03/26 02:41:35;;;;;;;0.60;0.60;;;6.80;54.30;;;5.99;40.52;95937.03;5018369;28;20196;-84
2022/03/26 02:44:02;;;;;;;0.60;0.60;;;6.80;54.20;;;6.02;40.96;95938.56;5034527;28;20227;-85
2022/03/26 02:46:29;;;;;;;0.60;0.60;;;6.80;54.60;;;6.00;41.37;95940.50;5018173;28;20256;-85
2022/03/26 02:48:56;;;;;;;0.70;0.70;;;6.90;54.80;;;6.02;41.14;95946.38;5013938;28;20220;-85
2022/03/26 02:51:24;;;;;;;0.60;0.60;;;6.90;54.70;;;6.00;40.45;95941.28;5015077;28;20283;-85
2022/03/26 02:53:51;;;;;;;0.70;0.70;;;6.90;54.30;;;5.99;39.92;95939.66;5017806;28;20307;-84
2022/03/26 02:56:19;;;;;;;0.80;0.80;;;6.90;54.00;;;5.95;39.51;95946.06;5015952;28;20266;-85
2022/03/26 02:58:50;;;;;;;0.70;0.70;;;6.90;53.70;;;5.72;39.40;95915.09;5014193;28;20221;-85
2022/03/26 03:01:17;;;;;;;0.55;0.55;;;6.80;53.50;;;5.76;39.13;95934.69;5011039;28;20252;-85
2022/03/26 03:03:44;;;;;;;0.70;0.70;;;6.80;52.90;;;5.64;38.87;95946.19;4998062;28;20244;-84
2022/03/26 03:06:12;;;;;;;0.70;0.70;;;6.80;52.90;;;5.50;38.88;95941.38;4998282;28;20216;-85
2022/03/26 03:08:39;;;;;;;0.60;0.60;;;6.70;52.70;;;5.38;38.43;95944.13;5014719;28;20228;-85
2022/03/26 03:11:08;;;;;;;0.75;0.75;;;6.60;52.70;;;5.27;38.29;95942.44;5033080;28;20205;-85
2022/03/26 03:13:36;;;;;;;0.70;0.70;;;6.50;52.60;;;5.14;38.51;95936.66;5017688;28;20279;-85
2022/03/26 03:16:03;;;;;;;0.73;0.73;;;6.40;52.40;;;4.93;38.77;95934.94;5033117;28;20204;-85
2022/03/26 03:18:30;;;;;;;0.70;0.70;;;6.30;52.30;;;4.86;38.67;95940.78;5000916;28;20220;-85
2022/03/26 03:21:00;;;;;;;0.80;0.80;;;6.30;52.30;;;4.75;38.63;95952.09;5017546;28;20215;-84
2022/03/26 03:23:28;;;;;;;0.80;0.80;;;6.10;52.20;;;4.63;39.24;95948.75;5017124;28;20239;-85
2022/03/26 03:25:55;;;;;;;0.65;0.65;;;6.10;52.10;;;4.55;39.68;95945.97;5017557;28;20255;-84
2022/03/26 03:28:24;;;;;;;0.70;0.70;;;5.90;52.90;;;4.53;40.11;95945.28;5010943;28;20201;-84
2022/03/26 03:30:52;;;;;;;0.70;0.70;;;5.80;53.60;;;4.53;40.51;95940.06;4997372;28;20284;-85
2022/03/26 03:33:19;;;;;;;0.70;0.70;;;5.80;54.00;;;4.58;40.77;95940.53;4997667;28;20273;-85
2022/03/26 03:35:46;;;;;;;0.80;0.80;;;5.70;54.10;;;4.68;41.38;95948.38;5013771;28;20198;-85
2022/03/26 03:38:14;;;;;;;0.60;0.60;;;5.70;55.00;;;4.72;41.01;95942.78;4982114;28;20206;-84
2022/03/26 03:40:41;;;;;;;0.80;0.80;;;5.70;54.80;;;4.77;41.00;95940.63;5016229;28;20208;-85
2022/03/26 03:43:08;;;;;;;0.68;0.68;;;5.70;55.00;;;4.80;41.00;95936.94;5001059;28;20315;-84
2022/03/26 03:45:35;;;;;;;0.70;0.70;;;5.70;56.10;;;4.79;40.97;95935.28;5033495;28;20251;-84
2022/03/26 03:48:02;;;;;;;0.65;0.65;;;5.70;54.80;;;4.81;41.26;95936.81;5011357;28;20203;-84
2022/03/26 03:50:29;;;;;;;0.80;0.80;;;5.80;55.10;;;4.80;41.25;95935.16;5016768;28;20252;-85
2022/03/26 03:52:57;;;;;;;0.70;0.70;;;5.80;55.10;;;4.74;41.01;95929.66;5033050;28;20207;-84
2022/03/26 03:55:24;;;;;;;0.60;0.60;;;5.80;54.90;;;4.79;41.74;95935.28;5033099;28;20641;-84
2022/03/26 03:57:51;;;;;;;0.70;0.70;;;5.80;55.30;;;4.78;42.30;95944.03;5022436;28;20457;-84
2022/03/26 04:00:18;;;;;;;0.60;0.60;;;5.80;56.90;;;4.77;42.17;95938.03;5030655;28;20234;-84
2022/03/26 04:02:46;;;;;;;0.80;0.80;;;5.80;55.80;;;4.80;41.93;95940.34;5016590;28;20224;-84
2022/03/26 04:05:14;;;;;;;0.80;0.80;;;5.80;55.70;;;4.75;42.49;95933.91;5015871;28;20220;-84
2022/03/26 04:07:44;;;;;;;0.80;0.80;;;5.80;56.00;;;4.79;43.02;95930.91;5013002;28;20674;-84
2022/03/26 04:10:11;;;;;;;0.70;0.70;;;5.80;56.30;;;4.80;42.73;95929.97;4997174;28;20218;-85
2022/03/26 04:12:42;;;;;;;0.60;0.60;;;5.80;56.00;;;4.87;43.21;95930.28;4997151;28;20204;-85
2022/03/26 04:15:12;;;;;;;0.60;0.60;;;5.80;56.60;;;4.91;42.49;95930.84;5012699;28;20710;-85
2022/03/26 04:17:40;;;;;;;0.70;0.70;;;5.80;56.20;;;4.93;43.16;95931.50;5009104;28;20203;-85
2022/03/26 04:20:10;;;;;;;0.60;0.60;;;5.80;56.60;;;4.93;43.22;95926.31;4980664;28;20225;-85
2022/03/26 04:22:39;;;;;;;0.70;0.70;;;5.90;56.80;;;5.01;42.46;95936.88;4996569;28;20263;-86
2022/03/26 04:25:07;;;;;;;0.60;0.60;;;5.90;56.50;;;4.97;42.76;95925.91;4998408;28;20233;-85
2022/03/26 04:27:34;;;;;;;0.77;0.77;;;5.90;56.50;;;5.02;42.00;95929.91;5013514;28;20216;-85
2022/03/26 04:30:03;;;;;;;0.70;0.70;;;5.90;56.20;;;5.01;42.31;95936.88;4998091;28;20233;-85
2022/03/26 04:32:30;;;;;;;0.70;0.70;;;5.90;56.10;;;4.98;42.26;95937.16;5014523;28;20200;-85
2022/03/26 04:34:58;;;;;;;0.70;0.70;;;5.90;56.00;;;4.98;42.59;95942.34;4996481;28;20249;-85
2022/03/26 04:37:25;;;;;;;0.70;0.70;;;5.90;56.20;;;4.97;42.48;95941.50;5005663;28;20197;-84
2022/03/26 04:39:53;;;;;;;0.70;0.70;;;5.90;56.10;;;4.97;42.82;95944.13;4996056;28;20275;-84
2022/03/26 04:42:20;;;;;;;0.60;0.60;;;5.90;56.40;;;4.98;42.62;95944.94;5012919;28;20204;-85
2022/03/26 04:44:47;;;;;;;0.70;0.70;;;5.90;56.40;;;4.97;42.17;95946.72;5015190;28;20326;-84
2022/03/26 04:47:14;;;;;;;0.80;0.80;;;5.90;56.20;;;4.94;42.62;95952.19;5024711;28;20199;-84
2022/03/26 04:49:41;;;;;;;0.80;0.80;;;5.90;56.30;;;4.77;42.65;95932.00;5045324;28;20216;-85
2022/03/26 04:52:08;;;;;;;0.60;0.60;;;5.90;56.30;;;4.92;42.88;95961.03;5012508;28;20194;-85
2022/03/26 04:54:35;;;;;;;0.65;0.65;;;5.90;56.60;;;4.91;42.93;95960.25;5028573;28;20213;-84
2022/03/26 04:57:03;;;;;;;0.70;0.70;;;5.90;57.90;;;4.92;43.35;95958.44;5008831;28;20205;-85
2022/03/26 04:59:30;;;;;;;0.60;0.60;;;5.90;57.00;;;4.96;42.42;95952.88;5012677;28;20303;-85
2022/03/26 05:01:57;;;;;;;0.70;0.70;;;5.90;56.70;;;4.96;41.88;95962.44;5012036;28;20300;-84
2022/03/26 05:04:24;;;;;;;0.80;0.80;;;5.90;56.40;;;4.86;41.78;95957.22;5028390;28;20228;-84
2022/03/26 05:06:51;;;;;;;0.70;0.70;;;5.90;56.10;;;4.79;41.46;95958.69;4991418;28;20206;-85
2022/03/26 05:09:18;;;;;;;0.60;0.60;;;5.80;55.80;;;4.69;41.18;95974.22;5010150;28;20220;-85
2022/03/26 05:11:45;;;;;;;0.60;0.60;;;5.80;55.70;;;4.58;41.66;95964.72;4996074;28;20235;-84
2022/03/26 05:14:13;;;;;;;0.50;0.50;;;5.80;55.70;;;4.52;41.76;95964.41;5031757;28;20894;-84
2022/03/26 05:16:40;;;;;;;0.60;0.60;;;5.70;55.90;;;4.46;41.66;95963.16;5022494;28;20207;-84
2022/03/26 05:19:07;;;;;;;0.70;0.70;;;5.60;55.90;;;4.41;42.04;95967.91;5008451;28;20282;-85
2022/03/26 05:21:34;;;;;;;0.80;0.80;;;5.60;56.00;;;4.39;41.86;95977.59;5000628;28;20203;-84
2022/03/26 05:24:02;;;;;;;0.65;0.65;;;5.50;56.00;;;4.36;41.53;95977.84;5020334;28;20342;-85
2022/03/26 05:26:29;;;;;;;0.80;0.80;;;5.50;57.20;;;4.35;41.58;95984.00;5011775;28;20205;-84
2022/03/26 05:28:57;;;;;;;0.60;0.60;;;5.40;56.00;;;4.33;41.63;95974.56;4979900;28;20714;-84
2022/03/26 05:31:24;;;;;;;0.70;0.70;;;5.40;56.10;;;4.33;41.40;95981.53;5012249;28;20196;-85
2022/03/26 05:33:51;;;;;;;0.73;0.73;;;5.40;56.10;;;4.29;41.30;95980.13;5008728;28;20220;-84
2022/03/26 05:36:18;;;;;;;0.70;0.70;;;5.40;56.10;;;4.30;41.49;95987.78;4979366;28;20685;-84
2022/03/26 05:38:47;;;;;;;0.60;0.60;;;5.30;56.00;;;4.26;41.82;95986.41;4983129;28;20232;-84
2022/03/26 05:41:14;;;;;;;0.70;0.70;;;5.30;56.20;;;4.24;42.13;95977.09;5015916;28;20293;-84
2022/03/26 05:43:41;;;;;;;0.70;0.70;;;5.40;56.80;;;4.40;43.03;95990.47;5017114;28;20240;-84
2022/03/26 05:46:08;;;;;;;0.70;0.70;;;5.30;57.30;;;4.49;43.37;95987.13;5034392;28;20617;-84
2022/03/26 05:48:36;;;;;;;0.70;0.70;;;5.40;57.80;;;4.65;43.73;95991.84;5019012;28;20571;-84
2022/03/26 05:51:03;;;;;;;0.70;0.70;;;5.40;58.00;;;4.81;43.95;95991.38;5035489;28;20189;-84
2022/03/26 05:53:30;;;;;;;0.60;0.60;;;5.50;58.40;;;4.88;44.07;95986.50;5023433;28;20694;-84
2022/03/26 05:55:58;;;;;;;0.60;0.60;;;5.60;58.70;;;5.06;44.82;95989.31;5001355;28;20200;-84
2022/03/26 05:58:25;;;;;;;0.73;0.73;;;5.70;58.90;;;5.23;44.33;95993.06;5021142;28;20399;-84
2022/03/26 06:00:52;;;;;;;0.50;0.50;;;5.80;59.20;;;5.36;44.81;95992.84;5010866;28;20578;-84
2022/03/26 06:03:20;;;;;;;0.60;0.60;;;5.90;59.20;;;5.50;45.17;95996.03;4998508;28;20229;-84
2022/03/26 06:05:47;;;;;;;0.60;0.60;;;6.00;59.70;;;5.60;44.73;95994.25;4996117;28;20196;-83
2022/03/26 06:08:15;;;;;;;0.60;0.60;;;6.10;59.50;;;5.60;44.48;95976.88;5002872;28;20208;-83
2022/03/26 06:10:42;;;;;;;0.57;0.57;;;6.20;59.40;;;5.87;44.57;96003.19;5004828;28;20283;-84
2022/03/26 06:13:09;;;;;;;0.77;0.77;;;6.30;59.40;;;5.96;44.13;95996.34;5018435;28;20243;-83
2022/03/26 06:15:37;;;;;;;0.60;0.60;;;6.50;59.30;;;6.09;43.88;96005.59;5014872;28;20201;-85
2022/03/26 06:18:12;;;;;;;0.70;0.70;;;6.60;59.20;;;6.21;44.07;96002.84;5000890;28;20248;-84
2022/03/26 06:20:42;;;;;;;0.50;0.50;;;6.60;59.20;;;6.30;44.22;95993.38;4987141;28;20255;-85
2022/03/26 06:23:10;;;;;;;0.70;0.70;;;6.80;59.20;;;6.40;43.80;96007.22;5029354;28;20201;-85
2022/03/26 06:25:38;;;;;;;0.50;0.50;;;6.80;59.00;;;6.52;43.63;96010.53;5025247;28;20201;-84
2022/03/26 06:28:05;;;;;;;0.63;0.63;;;6.90;58.90;;;6.62;43.56;96010.50;5001580;28;20201;-86
2022/03/26 06:30:33;;;;;;;0.80;0.80;;;7.10;58.80;;;6.71;43.11;96014.88;5000439;28;20253;-85
2022/03/26 06:33:01;;;;;;;0.60;0.60;;;7.10;58.50;;;6.81;42.52;96012.22;5014160;28;20613;-86
2022/03/26 06:35:28;;;;;;;0.50;0.50;;;7.20;58.50;;;6.85;42.91;96008.41;5016296;28;20236;-86
2022/03/26 06:37:55;;;;;;;0.60;0.60;;;7.30;58.20;;;6.82;42.37;95990.41;5007719;28;20202;-85
2022/03/26 06:40:23;;;;;;;0.60;0.60;;;7.40;58.10;;;7.07;42.46;96017.66;4998487;28;20213;-86
2022/03/26 06:42:50;;;;;;;0.70;0.70;;;7.50;58.10;;;7.15;42.27;96019.56;5033980;28;20205;-85
2022/03/26 06:45:18;;;;;;;0.55;0.55;;;7.60;58.10;;;7.22;42.30;96021.44;5016454;28;20244;-85
2022/03/26 06:47:45;;;;;;;0.52;0.52;;;7.70;58.00;;;7.32;41.99;96021.44;5004625;28;20608;-85
2022/03/26 06:50:14;;;;;;;0.60;0.60;;;7.70;57.90;;;7.38;42.15;96020.00;5022395;28;20213;-85
2022/03/26 06:52:41;;;;;;;0.70;0.70;;;7.80;58.00;;;7.47;42.05;96018.31;5026376;28;20270;-85
2022/03/26 06:55:09;;;;;;;0.60;0.60;;;7.90;58.00;;;7.53;42.19;96020.34;5015513;28;20223;-85
2022/03/26 06:57:36;;;;;;;0.70;0.70;;;7.90;57.90;;;7.63;41.92;96028.97;5019095;28;20611;-85
2022/03/26 07:00:06;;;;;;;0.50;0.50;;;8.00;57.90;;;7.75;41.65;96028.75;5001731;28;20256;-85
2022/03/26 07:02:33;;;;;;;0.50;0.50;;;8.10;57.90;;;7.83;41.79;96032.28;5014148;28;20200;-85
2022/03/26 07:05:00;;;;;;;0.55;0.55;;;8.20;57.90;;;7.91;41.64;96031.56;5007738;28;20228;-86
2022/03/26 07:07:27;;;;;;;0.50;0.50;;;8.30;57.80;;;8.00;41.61;96028.03;5027660;28;20200;-86
2022/03/26 07:09:58;;;;;;;0.70;0.70;;;8.40;57.90;;;8.10;41.65;96025.34;5003225;28;20210;-85
2022/03/26 07:12:29;;;;;;;0.65;0.65;;;8.50;57.70;;;8.12;41.70;96012.97;5017146;28;20225;-86
2022/03/26 07:14:56;;;;;;;0.70;0.70;;;8.50;57.60;;;8.32;41.59;96029.34;5022790;28;20228;-85
2022/03/26 07:17:24;;;;;;;0.50;0.50;;;8.60;57.70;;;8.43;41.29;96030.88;5028479;28;20203;-85
2022/03/26 07:19:51;;;;;;;0.50;0.50;;;8.70;57.60;;;8.54;41.40;96035.09;5018657;28;20243;-86
2022/03/26 07:22:18;;;;;;;0.60;0.60;;;8.80;57.70;;;8.67;41.30;96023.41;5015519;28;20622;-85
2022/03/26 07:24:45;;;;;;;0.50;0.50;;;8.90;57.80;;;8.78;41.49;96031.84;5016074;28;20228;-85
2022/03/26 07:27:13;;;;;;;0.50;0.50;;;9.00;57.70;;;8.86;41.33;96022.41;5011359;28;20209;-85
2022/03/26 07:29:40;;;;;;;0.60;0.60;;;9.10;57.70;;;9.02;41.16;96033.00;5018037;28;20221;-85
2022/03/26 07:32:09;;;;;;;0.50;0.50;;;9.20;57.80;;;9.14;41.15;96030.91;5017690;28;20293;-85
2022/03/26 07:34:36;;;;;;;0.52;0.52;;;9.30;57.70;;;9.28;41.10;96040.81;5000573;28;20282;-85
2022/03/26 07:37:04;;;;;;;0.52;0.52;;;9.40;57.70;;;9.41;40.91;96035.16;5000712;28;20635;-85
2022/03/26 07:39:31;;;;;;;0.70;0.70;;;9.50;57.80;;;9.43;41.41;96016.66;5009264;28;20660;-85
2022/03/26 07:41:58;;;;;;;0.70;0.70;;;9.60;57.70;;;9.68;40.87;96035.09;5005988;28;20197;-85
2022/03/26 07:44:25;;;;;;;0.68;0.68;;;9.70;57.60;;;9.80;40.67;96036.44;5013064;28;20672;-85
2022/03/26 07:46:52;;;;;;;0.50;0.50;;;9.90;57.50;;;9.93;40.46;96041.25;5011306;28;20209;-86
2022/03/26 07:49:19;;;;;;;0.50;0.50;;;9.90;57.30;;;10.03;40.33;96038.47;5010914;28;20217;-85
2022/03/26 07:51:46;;;;;;;0.50;0.50;;;10.10;55.50;;;10.16;40.52;96045.91;4997168;28;20300;-84
2022/03/26 07:54:13;;;;;;;0.70;0.70;;;10.30;55.70;;;10.28;40.43;96044.59;5013493;28;20688;-84
2022/03/26 07:56:41;;;;;;;0.70;0.70;;;10.30;55.30;;;10.39;40.29;96044.31;5014663;28;20244;-85
2022/03/26 07:59:08;;;;;;;0.60;0.60;;;10.40;55.30;;;10.49;40.14;96041.53;5032849;28;20833;-85
2022/03/26 08:01:35;;;;;;;0.70;0.70;;;10.50;55.20;;;10.62;40.22;96043.69;5014177;28;20566;-85
2022/03/26 08:04:03;;;;;;;0.55;0.55;;;10.60;54.80;;;10.71;39.82;96044.50;5001018;28;20220;-85
2022/03/26 08:06:31;;;;;;;0.70;0.70;;;10.70;54.90;;;10.75;39.78;96037.91;5012566;28;20189;-85
2022/03/26 08:08:58;;;;;;;0.50;0.50;;;10.80;55.00;;;10.80;39.40;96022.53;5004529;28;20322;-85
2022/03/26 08:11:25;;;;;;;0.50;0.50;;;10.90;55.00;;;11.03;39.38;96030.53;5023958;28;20204;-85
2022/03/26 08:13:53;;;;;;;0.60;0.60;;;11.10;55.20;;;11.16;39.56;96035.25;5008182;28;20227;-85
2022/03/26 08:16:20;;;;;;;0.60;0.60;;;11.10;55.30;;;11.24;39.53;96025.72;4996567;28;20283;-85
2022/03/26 08:18:47;;;;;;;0.50;0.50;;;11.30;55.50;;;11.41;39.24;96035.16;5015501;28;20216;-84
2022/03/26 08:21:15;;;;;;;0.70;0.70;;;11.40;55.60;;;11.53;39.21;96036.47;5002600;28;20204;-85
2022/03/26 08:23:43;;;;;;;0.50;0.50;;;11.50;56.50;;;11.61;39.27;96030.34;5000724;28;20263;-85
2022/03/26 08:26:20;;;;;;;0.70;0.70;;;11.60;55.10;;;11.73;38.94;96037.84;5004396;28;20235;-85
2022/03/26 08:28:49;;;;;;;0.50;0.50;;;11.60;54.80;;;11.81;38.89;96033.38;5009088;28;20283;-85
2022/03/26 08:31:18;;;;;;;0.52;0.52;;;11.80;54.60;;;11.86;38.71;96030.22;5007463;28;20205;-85
2022/03/26 08:33:45;;;;;;;0.50;0.50;;;11.90;54.40;;;11.94;38.52;96032.03;5011085;28;20307;-85
2022/03/26 08:36:15;;;;;;;0.50;0.50;;;12.00;54.20;;;12.00;38.44;96026.09;4994094;28;20689;-85
2022/03/26 08:38:45;;;;;;;0.50;0.50;;;12.10;55.30;;;12.15;38.47;96037.50;4998217;28;20736;-84
2022/03/26 08:41:17;;;;;;;0.57;0.57;;;12.10;54.00;;;12.24;38.31;96033.03;5008176;28;20227;-85
2022/03/26 08:43:44;;;;;;;0.60;0.60;;;12.20;54.00;;;12.32;37.95;96027.69;5015420;28;20208;-85
2022/03/26 08:46:11;;;;;;;0.50;0.50;;;12.40;53.70;;;12.43;38.16;96029.09;5024594;28;20189;-84
2022/03/26 08:48:39;;;;;;;0.70;0.70;;;12.40;53.50;;;12.56;37.79;96030.31;4998093;28;20773;-85
2022/03/26 08:51:06;;;;;;;0.60;0.60;;;12.50;53.80;;;12.66;37.87;96038.81;5012295;28;20407;-85
2022/03/26 08:53:33;;;;;;;0.52;0.52;;;12.70;53.80;;;12.77;37.75;96032.31;4994365;28;20225;-85
2022/03/26 08:56:00;;;;;;;0.60;0.60;;;12.70;53.70;;;12.88;37.70;96041.59;4982787;28;20459;-85
2022/03/26 08:58:28;;;;;;;0.50;0.50;;;12.80;53.80;;;12.97;37.75;96033.44;5018120;28;20252;-85
2022/03/26 09:00:55;;;;;;;0.50;0.50;;;12.90;53.60;;;13.08;37.48;96039.25;4995911;28;20200;-85
2022/03/26 09:03:22;;;;;;;0.50;0.50;;;13.00;53.50;;;13.17;37.22;96027.66;5003344;28;20219;-85
2022/03/26 09:05:56;;;;;;;0.50;0.50;;;13.00;53.30;;;13.27;37.11;96035.31;5000293;28;20269;-84
2022/03/26 09:08:24;;;;;;;0.60;0.60;;;13.10;53.10;;;13.35;36.92;96031.75;5013874;28;20197;-85
2022/03/26 09:10:51;;;;;;;0.50;0.50;;;13.20;52.90;;;13.48;36.83;96025.88;5013774;28;20632;-85
2022/03/26 09:13:18;;;;;;;0.50;0.50;;;13.30;52.80;;;13.58;36.54;96032.50;5032175;28;20677;-84
2022/03/26 09:15:46;;;;;;;0.50;0.50;;;13.40;52.60;;;13.69;36.41;96019.88;5018949;28;20409;-86
2022/03/26 09:18:13;;;;;;;0.50;0.50;;;13.50;52.30;;;13.70;35.71;96013.59;5014725;28;20199;-85
2022/03/26 09:20:40;;;;;;;0.50;0.50;;;13.60;51.90;;;13.71;35.05;95996.78;5024090;28;20669;-85
2022/03/26 09:23:08;;;;;;;0.40;0.40;;;13.70;51.40;;;13.96;35.00;96025.47;4983554;28;20246;-85
2022/03/26 09:25:35;;;;;;;0.50;0.50;;;13.80;51.10;;;14.05;35.32;96009.34;5029002;28;20263;-85
2022/03/26 09:28:03;;;;;;;0.70;0.70;;;13.90;51.40;;;14.12;35.46;95998.84;5008947;28;20655;-85
2022/03/26 09:30:31;;;;;;;0.52;0.52;;;14.00;51.20;;;14.19;34.39;96004.19;5040065;28;20510;-85
2022/03/26 09:33:00;;;;;;;0.50;0.50;;;14.10;50.30;;;14.27;34.63;95998.81;5001883;28;20284;-85
2022/03/26 09:35:27;;;;;;;0.50;0.50;;;14.20;50.40;;;14.35;34.10;95997.84;5000832;28;20323;-85
2022/03/26 09:37:54;;;;;;;0.70;0.70;;;14.20;49.90;;;14.46;34.36;96001.81;4993534;28;20285;-84
2022/03/26 09:40:23;;;;;;;0.70;0.70;;;14.30;50.30;;;14.54;34.08;95996.41;5017607;28;20251;-84
2022/03/26 09:42:52;;;;;;;0.50;0.50;;;14.40;50.00;;;14.63;33.96;95997.09;5035134;28;20549;-85
2022/03/26 09:45:20;;;;;;;0.45;0.45;;;14.50;49.90;;;14.75;33.92;95998.25;5017306;28;20259;-85
2022/03/26 09:47:47;;;;;;;0.50;0.50;;;14.50;49.60;;;14.76;32.84;95997.22;5002511;28;20229;-85
2022/03/26 09:50:15;;;;;;;0.60;0.60;;;14.60;48.40;;;14.87;31.88;95998.53;5006737;28;20212;-86
2022/03/26 09:52:44;;;;;;;0.70;0.70;;;14.70;48.20;;;14.88;31.53;95998.34;5014905;28;20200;-86
2022/03/26 09:55:12;;;;;;;0.50;0.50;;;14.80;47.50;;;14.99;32.11;96004.09;5005507;28;20220;-87
2022/03/26 09:57:40;;;;;;;0.60;0.60;;;14.80;47.90;;;15.00;31.64;95992.50;5028167;28;20730;-85
2022/03/26 10:00:09;;;;;;;0.50;0.50;;;14.90;47.60;;;15.10;31.83;95998.28;5026407;28;20232;-86
2022/03/26 10:02:41;;;;;;;0.52;0.52;;;15.00;47.70;;;15.21;32.27;96002.22;5005304;28;20203;-85
2022/03/26 10:05:12;;;;;;;0.52;0.52;;;15.00;48.00;;;15.23;31.88;95994.91;5017156;28;20227;-85
2022/03/26 10:07:40;;;;;;;0.50;0.50;;;15.10;47.60;;;15.36;31.96;96010.03;5019812;28;20192;-85
2022/03/26 10:10:20;;;;;;;0.52;0.52;;;15.20;47.70;;;15.42;31.89;96000.53;5014869;28;20323;-86
2022/03/26 10:12:51;;;;;;;0.47;0.47;;;15.30;47.80;;;15.51;32.37;96002.81;5004027;28;20605;-84
2022/03/26 10:15:18;;;;;;;0.50;0.50;;;15.40;48.00;;;15.63;31.98;96008.34;5012412;28;20233;-85
2022/03/26 10:17:46;;;;;;;0.50;0.50;;;15.40;47.90;;;15.74;31.96;95996.38;5017906;28;20254;-86
2022/03/26 10:20:15;;;;;;;0.50;0.50;;;15.50;48.00;;;15.86;31.91;95999.31;5016435;28;20252;-85
2022/03/26 10:22:50;;;;;;;0.40;0.40;;;15.60;47.80;;;15.94;32.02;95993.84;5013537;28;20640;-85
2022/03/26 10:25:22;;;;;;;0.40;0.40;;;15.70;47.80;;;16.00;31.65;95993.06;5021475;28;20600;-85
2022/03/26 10:27:56;;;;;;;0.50;0.50;;;15.80;47.10;;;16.12;31.26;95989.81;5049769;28;20245;-86
2022/03/26 10:33:27;;;;;;;0.47;0.47;;;16.00;47.10;;;16.15;29.16;95987.59;5018256;28;20196;-85
2022/03/26 10:36:02;;;;;;;0.50;0.50;;;16.00;44.10;;;16.20;29.69;95992.28;5029595;28;20206;-85